Time;durP1;ratioP1;P1;durP2;ratioP2;P2;SDS_P1;SDS_P2;PMS_P1;PMS_P2;Temp;Humidity;BMP_temperature;BMP_pressure;BME280_temperature;BME280_humidity;BME280_pressure;Samples;Min_cycle;Max_cycle;Signal;HPM_P1;HPM_P2
2020/12/31 00:00:23;;;;;;;26.83;10.13;;;;;;;7.95;83.80;100038.62;128296;1088;104475;-75
2020/12/31 00:03:03;;;;;;;29.10;10.67;;;;;;;7.91;83.23;100037.59;128264;1088;104398;-75
2020/12/31 00:05:32;;;;;;;28.50;10.27;;;;;;;7.91;83.57;100045.44;128241;1088;104474;-75
2020/12/31 00:08:02;;;;;;;30.67;11.33;;;;;;;7.89;83.11;100041.88;128271;1089;104462;-74
2020/12/31 00:10:32;;;;;;;27.77;10.90;;;;;;;7.86;83.79;100049.59;128238;1088;104394;-75
2020/12/31 00:13:01;;;;;;;30.80;12.60;;;;;;;7.85;83.89;100045.23;128324;1089;104423;-74
2020/12/31 00:15:31;;;;;;;30.97;11.67;;;;;;;7.87;83.87;100051.39;127873;1091;104529;-74
2020/12/31 00:18:01;;;;;;;25.93;10.73;;;;;;;7.89;83.39;100044.49;128271;1088;104398;-74
2020/12/31 00:20:30;;;;;;;27.33;10.77;;;;;;;7.90;83.87;100051.52;128325;1088;104433;-74
2020/12/31 00:22:59;;;;;;;26.60;10.37;;;;;;;7.91;83.68;100058.50;128319;1088;104843;-74
2020/12/31 00:25:27;;;;;;;24.23;10.53;;;;;;;7.91;83.57;100058.50;128278;1088;104852;-77
2020/12/31 00:27:56;;;;;;;25.50;10.70;;;;;;;7.92;83.09;100052.45;128319;1088;104464;-76
2020/12/31 00:30:25;;;;;;;24.60;10.43;;;;;;;7.92;83.51;100054.19;128324;1089;104398;-75
2020/12/31 00:32:54;;;;;;;30.27;11.43;;;;;;;7.90;83.82;100050.63;128299;1089;104413;-75
2020/12/31 00:35:29;;;;;;;26.43;11.47;;;;;;;7.88;83.85;100053.19;128304;1088;104551;-75
2020/12/31 00:37:59;;;;;;;31.43;12.70;;;;;;;7.87;83.25;100054.00;128242;1088;104551;-73
2020/12/31 00:40:28;;;;;;;29.97;12.13;;;;;;;7.91;83.32;100057.62;128341;1089;104850;-73
2020/12/31 00:42:57;;;;;;;32.37;13.03;;;;;;;7.94;84.04;100049.02;128301;1089;104429;-75
2020/12/31 00:45:27;;;;;;;32.07;13.67;;;;;;;7.94;83.47;100047.28;128324;1088;104535;-75
2020/12/31 00:47:56;;;;;;;29.53;13.27;;;;;;;7.94;83.60;100047.28;127828;1091;104403;-74
2020/12/31 00:50:25;;;;;;;29.53;13.73;;;;;;;7.94;83.89;100044.67;128252;1088;104535;-74
2020/12/31 00:52:54;;;;;;;33.23;14.17;;;;;;;7.97;83.24;100039.57;128319;1089;105022;-75
2020/12/31 00:55:23;;;;;;;31.10;14.30;;;;;;;8.00;83.97;100037.08;128299;1089;104398;-75
2020/12/31 00:57:53;;;;;;;29.63;14.00;;;;;;;8.03;83.28;100037.20;128343;1088;104433;-75
2020/12/31 01:00:23;;;;;;;30.65;13.30;;;;;;;8.06;83.69;100041.66;128316;1088;104398;-75
2020/12/31 01:03:07;;;;;;;27.47;12.30;;;;;;;8.09;83.94;100041.77;128328;1089;104471;-75
2020/12/31 01:05:36;;;;;;;31.27;11.97;;;;;;;8.05;83.28;100034.64;128355;1088;104526;-74
2020/12/31 01:08:05;;;;;;;29.43;12.90;;;;;;;8.03;83.43;100034.58;127845;1091;104402;-73
2020/12/31 01:10:34;;;;;;;30.17;11.53;;;;;;;8.07;83.36;100035.58;128379;1088;104398;-73
2020/12/31 01:13:04;;;;;;;30.57;12.50;;;;;;;8.06;83.65;100032.09;128341;1088;104596;-73
2020/12/31 01:15:33;;;;;;;27.43;11.80;;;;;;;8.06;83.20;100026.86;127820;1089;104398;-74
2020/12/31 01:18:01;;;;;;;28.10;11.00;;;;;;;8.06;83.97;100016.41;128203;1088;104410;-73
2020/12/31 01:20:30;;;;;;;27.00;11.47;;;;;;;8.06;83.56;100012.91;128271;1088;104586;-75
2020/12/31 01:22:59;;;;;;;24.87;10.97;;;;;;;8.04;83.87;100019.78;128337;1090;104487;-74
2020/12/31 01:25:28;;;;;;;26.50;10.80;;;;;;;7.99;83.58;100016.99;128367;1089;105112;-73
2020/12/31 01:27:57;;;;;;;26.40;12.00;;;;;;;7.98;83.19;100017.84;128300;1089;104544;-75
2020/12/31 01:30:26;;;;;;;26.47;11.40;;;;;;;7.97;83.60;100016.05;128275;1088;104420;-74
2020/12/31 01:32:55;;;;;;;29.77;11.47;;;;;;;7.97;83.95;100023.02;128284;1088;104407;-74
2020/12/31 01:35:25;;;;;;;24.93;11.07;;;;;;;7.92;84.05;100013.27;128300;1088;104410;-74
2020/12/31 01:37:55;;;;;;;29.30;11.20;;;;;;;7.90;83.60;100022.77;128254;1088;104869;-74
2020/12/31 01:40:24;;;;;;;24.43;10.37;;;;;;;7.88;84.06;100018.31;127800;1088;104660;-74
2020/12/31 01:42:53;;;;;;;27.30;11.47;;;;;;;7.85;83.81;100015.58;128297;1088;104427;-76
2020/12/31 01:45:22;;;;;;;28.30;11.07;;;;;;;7.83;83.44;100022.48;128258;1088;104419;-76
2020/12/31 01:47:51;;;;;;;24.10;10.20;;;;;;;7.83;84.22;100022.48;128287;1088;104471;-74
2020/12/31 01:50:21;;;;;;;26.73;11.03;;;;;;;7.81;84.28;100032.86;128272;1089;104555;-76
2020/12/31 01:52:50;;;;;;;23.20;10.40;;;;;;;7.81;84.02;100035.48;127829;1090;104591;-75
2020/12/31 01:55:19;;;;;;;25.60;10.77;;;;;;;7.82;84.05;100033.74;128345;1089;104975;-74
2020/12/31 01:57:51;;;;;;;26.93;10.67;;;;;;;7.81;83.76;100040.70;128330;1088;104409;-75
2020/12/31 02:00:21;;;;;;;30.30;11.43;;;;;;;7.80;83.52;100030.19;128293;1088;104395;-76
2020/12/31 02:02:49;;;;;;;26.17;10.47;;;;;;;7.81;84.34;100035.48;128268;1088;104465;-75
2020/12/31 02:05:19;;;;;;;26.90;10.63;;;;;;;7.81;83.51;100027.64;128177;1088;104503;-75
2020/12/31 02:07:48;;;;;;;28.57;11.23;;;;;;;7.84;84.41;100032.98;128264;1089;104475;-76
2020/12/31 02:10:17;;;;;;;26.77;10.60;;;;;;;7.89;84.19;100036.66;128217;1088;104477;-75
2020/12/31 02:12:46;;;;;;;24.00;10.10;;;;;;;7.92;84.44;100034.16;128298;1088;104401;-75
2020/12/31 02:15:16;;;;;;;25.77;10.10;;;;;;;7.97;84.29;100036.95;128295;1088;104407;-74
2020/12/31 02:17:45;;;;;;;26.83;10.53;;;;;;;8.00;84.39;100026.63;128133;1089;104410;-75
2020/12/31 02:20:14;;;;;;;25.47;9.93;;;;;;;8.03;83.66;100029.35;128265;1088;104407;-75
2020/12/31 02:22:43;;;;;;;26.93;10.20;;;;;;;8.05;83.61;100024.19;128320;1089;104401;-75
2020/12/31 02:25:12;;;;;;;25.27;10.90;;;;;;;8.08;83.52;100019.08;128334;1088;104397;-75
2020/12/31 02:27:41;;;;;;;28.83;10.37;;;;;;;8.08;83.97;100024.30;128296;1088;104529;-75
2020/12/31 02:30:10;;;;;;;26.17;10.83;;;;;;;8.10;83.95;100026.16;128168;1088;104423;-75
2020/12/31 02:32:39;;;;;;;24.37;10.43;;;;;;;8.14;84.37;100024.54;128314;1088;104416;-74
2020/12/31 02:35:08;;;;;;;27.63;11.00;;;;;;;8.14;83.95;100011.47;128157;1089;104455;-74
2020/12/31 02:37:37;;;;;;;26.30;9.57;;;;;;;8.16;84.32;100001.95;128227;1088;104957;-76
2020/12/31 02:40:06;;;;;;;23.20;9.73;;;;;;;8.18;84.16;100009.85;128237;1089;104407;-73
2020/12/31 02:42:36;;;;;;;23.57;9.70;;;;;;;8.20;83.51;100003.86;128245;1088;104413;-76
2020/12/31 02:45:14;;;;;;;28.37;10.03;;;;;;;8.21;83.58;100015.20;128265;1088;104491;-73
2020/12/31 02:47:43;;;;;;;27.93;9.97;;;;;;;8.23;84.45;100009.20;128236;1089;104401;-75
2020/12/31 02:50:12;;;;;;;23.87;9.63;;;;;;;8.27;83.97;100005.88;128259;1088;104469;-76
2020/12/31 02:52:46;;;;;;;29.87;10.70;;;;;;;8.27;83.93;100005.88;128310;1088;104413;-75
2020/12/31 02:55:15;;;;;;;27.20;10.47;;;;;;;8.30;83.48;100014.66;128228;1088;104512;-74
2020/12/31 02:57:44;;;;;;;29.03;10.47;;;;;;;8.32;83.60;100005.14;128291;1088;104401;-74
2020/12/31 03:00:13;;;;;;;22.53;9.33;;;;;;;8.34;83.90;100000.88;128242;1088;104448;-74
2020/12/31 03:02:42;;;;;;;24.60;10.23;;;;;;;8.36;83.69;100002.69;128273;1089;104401;-76
2020/12/31 03:05:11;;;;;;;24.37;10.53;;;;;;;8.39;83.57;100000.19;128323;1089;104398;-75
2020/12/31 03:07:40;;;;;;;23.47;9.73;;;;;;;8.39;84.14;100005.42;128171;1090;104538;-76
2020/12/31 03:10:09;;;;;;;25.93;11.20;;;;;;;8.40;83.55;100012.44;128297;1088;104401;-74
2020/12/31 03:12:38;;;;;;;24.77;10.07;;;;;;;8.41;83.91;100014.23;128248;1088;104417;-74
2020/12/31 03:15:10;;;;;;;28.37;10.57;;;;;;;8.37;83.60;100021.91;128345;1088;104468;-75
2020/12/31 03:17:39;;;;;;;28.07;11.37;;;;;;;8.31;83.68;100019.94;128299;1088;104470;-75
2020/12/31 03:20:08;;;;;;;24.93;10.70;;;;;;;8.27;83.85;100029.41;128276;1088;104551;-74
2020/12/31 03:22:37;;;;;;;27.83;11.27;;;;;;;8.27;83.66;100018.95;128305;1088;104446;-74
2020/12/31 03:25:07;;;;;;;22.60;10.40;;;;;;;8.28;83.95;100025.94;128304;1088;104900;-74
2020/12/31 03:27:36;;;;;;;25.60;10.37;;;;;;;8.28;83.93;100025.06;128323;1088;104404;-73
2020/12/31 03:30:07;;;;;;;25.53;10.53;;;;;;;8.24;83.93;100025.77;128307;1088;104577;-74
2020/12/31 03:32:36;;;;;;;24.77;10.07;;;;;;;8.17;83.35;100024.66;128316;1089;104531;-74
2020/12/31 03:35:05;;;;;;;22.93;9.80;;;;;;;8.08;83.77;100024.30;128278;1088;104410;-77
2020/12/31 03:37:34;;;;;;;18.77;8.07;;;;;;;8.02;84.18;100013.62;128307;1088;104593;-75
2020/12/31 03:40:04;;;;;;;19.90;8.77;;;;;;;8.01;83.97;100011.83;128299;1088;104512;-76
2020/12/31 03:42:33;;;;;;;22.07;9.77;;;;;;;8.03;84.26;100013.67;128268;1089;104442;-73
2020/12/31 03:45:01;;;;;;;22.57;9.47;;;;;;;8.06;83.61;100020.75;128187;1089;104594;-75
2020/12/31 03:47:30;;;;;;;24.17;11.30;;;;;;;8.09;84.32;100016.52;128298;1088;104427;-75
2020/12/31 03:49:59;;;;;;;29.43;12.43;;;;;;;8.10;83.60;100014.79;128316;1089;104398;-75
2020/12/31 03:52:28;;;;;;;28.95;12.65;;;;;;;8.09;83.89;100005.19;128324;1088;104398;-76
2020/12/31 03:54:57;;;;;;;20.95;9.85;;;;;;;8.13;84.07;100001.84;128324;1089;104526;-75
2020/12/31 03:57:26;;;;;;;24.90;11.43;;;;;;;8.10;83.62;100001.72;128254;1088;104516;-74
2020/12/31 03:59:55;;;;;;;27.53;11.43;;;;;;;8.06;83.62;100000.73;127863;1089;104395;-74
2020/12/31 04:02:24;;;;;;;22.60;9.70;;;;;;;8.07;83.68;100012.06;128301;1089;104400;-75
2020/12/31 04:04:53;;;;;;;23.57;9.83;;;;;;;8.07;84.33;100006.83;128217;1088;104424;-77
2020/12/31 04:07:27;;;;;;;22.67;9.77;;;;;;;8.09;84.24;100006.07;128299;1088;104537;-75
2020/12/31 04:09:56;;;;;;;27.03;11.10;;;;;;;8.11;83.85;100003.52;128299;1088;104400;-75
2020/12/31 04:12:25;;;;;;;26.63;11.27;;;;;;;8.13;84.16;100007.06;128308;1088;104480;-75
2020/12/31 04:14:54;;;;;;;28.77;10.73;;;;;;;8.12;84.39;100007.92;128150;1088;104551;-75
2020/12/31 04:17:23;;;;;;;22.20;10.33;;;;;;;8.09;83.85;100015.64;128236;1089;104421;-75
2020/12/31 04:19:52;;;;;;;22.33;10.07;;;;;;;8.07;84.00;100012.06;128250;1088;104516;-74
2020/12/31 04:22:22;;;;;;;26.53;11.33;;;;;;;8.02;83.88;100011.00;128138;1089;104468;-74
2020/12/31 04:24:52;;;;;;;25.17;11.57;;;;;;;8.03;84.46;100011.06;128189;1088;104595;-75
2020/12/31 04:27:22;;;;;;;27.27;11.83;;;;;;;8.04;84.45;100012.86;128307;1089;104583;-74
2020/12/31 04:29:52;;;;;;;25.00;11.30;;;;;;;8.07;84.50;100012.06;128213;1089;104401;-75
2020/12/31 04:32:20;;;;;;;23.30;10.97;;;;;;;8.08;84.05;100013.85;128326;1088;104407;-75
2020/12/31 04:34:49;;;;;;;26.17;11.53;;;;;;;8.09;83.98;100007.80;128201;1088;104545;-76
2020/12/31 04:37:18;;;;;;;30.07;12.17;;;;;;;8.09;83.87;100011.30;128131;1089;104592;-75
2020/12/31 04:39:47;;;;;;;23.23;11.10;;;;;;;8.06;84.53;100003.34;128144;1088;104427;-74
2020/12/31 04:42:21;;;;;;;26.03;11.80;;;;;;;8.03;84.46;100011.06;128168;1088;104398;-75
2020/12/31 04:44:54;;;;;;;23.70;11.73;;;;;;;8.06;84.22;100011.18;128160;1088;104562;-74
2020/12/31 04:47:23;;;;;;;20.43;9.10;;;;;;;8.06;83.84;100012.91;128089;1089;104413;-75
2020/12/31 04:49:53;;;;;;;21.67;9.70;;;;;;;8.06;83.90;100020.75;128073;1088;104421;-74
2020/12/31 04:52:24;;;;;;;24.97;10.17;;;;;;;8.09;83.86;100029.59;128256;1091;104917;-73
2020/12/31 04:54:54;;;;;;;25.57;10.80;;;;;;;8.09;83.92;100029.59;128273;1088;104410;-74
2020/12/31 04:57:22;;;;;;;24.97;10.60;;;;;;;8.08;83.88;100026.92;127874;1088;104624;-74
2020/12/31 04:59:51;;;;;;;25.60;10.33;;;;;;;8.06;84.49;100028.59;128272;1088;104526;-74
2020/12/31 05:02:20;;;;;;;26.40;10.93;;;;;;;8.05;84.32;100029.41;128308;1089;104398;-74
2020/12/31 05:04:50;;;;;;;35.63;11.37;;;;;;;8.07;84.56;100030.35;128224;1088;104551;-74
2020/12/31 05:07:21;;;;;;;27.43;12.23;;;;;;;8.06;83.85;100033.82;128192;1088;104533;-75
2020/12/31 05:10:10;;;;;;;31.47;11.63;;;;;;;8.04;84.25;100032.84;128257;1089;104432;-75
2020/12/31 05:12:39;;;;;;;25.83;11.63;;;;;;;8.02;84.66;100032.79;128259;1089;104600;-74
2020/12/31 05:15:08;;;;;;;28.07;11.33;;;;;;;8.03;83.94;100033.70;128269;1088;104407;-74
2020/12/31 05:17:37;;;;;;;27.97;12.23;;;;;;;8.03;84.73;100025.86;128280;1088;104461;-74
2020/12/31 05:20:15;;;;;;;25.03;10.63;;;;;;;8.06;84.00;100028.59;128291;1088;104420;-74
2020/12/31 05:22:44;;;;;;;25.40;11.57;;;;;;;8.06;84.36;100031.20;128110;1088;104452;-75
2020/12/31 05:25:13;;;;;;;23.07;10.50;;;;;;;8.07;84.45;100028.66;127982;1089;104724;-74
2020/12/31 05:27:42;;;;;;;26.20;10.70;;;;;;;8.07;84.00;100039.11;127937;1089;104501;-75
2020/12/31 05:30:11;;;;;;;24.07;9.83;;;;;;;8.09;84.15;100041.77;127507;1091;104519;-74
2020/12/31 05:32:41;;;;;;;21.77;9.97;;;;;;;8.06;84.03;100039.05;128021;1088;104516;-75
2020/12/31 05:35:13;;;;;;;21.57;10.07;;;;;;;8.05;84.14;100045.09;128071;1090;104404;-75
2020/12/31 05:37:42;;;;;;;19.83;8.73;;;;;;;8.03;84.49;100050.26;128085;1088;104570;-75
2020/12/31 05:40:13;;;;;;;18.47;8.20;;;;;;;8.00;83.98;100054.48;127856;1090;104510;-75
2020/12/31 05:42:43;;;;;;;25.17;10.00;;;;;;;8.00;84.84;100050.14;128252;1088;104551;-74
2020/12/31 05:45:15;;;;;;;21.80;10.27;;;;;;;8.03;84.86;100057.22;127755;1089;104557;-74
2020/12/31 05:47:49;;;;;;;21.00;9.53;;;;;;;8.08;84.28;100063.50;127681;1090;104523;-75
2020/12/31 05:50:24;;;;;;;22.47;9.33;;;;;;;8.12;84.48;100052.34;127979;1088;104535;-75
2020/12/31 05:53:00;;;;;;;22.77;8.83;;;;;;;8.17;84.42;100053.41;127884;1088;104426;-76
2020/12/31 05:55:31;;;;;;;23.03;9.73;;;;;;;8.18;84.29;100057.81;127477;1090;104451;-75
2020/12/31 05:58:07;;;;;;;20.17;9.20;;;;;;;8.17;84.14;100055.14;127954;1089;104423;-75
2020/12/31 06:00:41;;;;;;;21.93;8.90;;;;;;;8.16;84.41;100049.00;127901;1089;104593;-77
2020/12/31 06:03:22;;;;;;;21.37;9.20;;;;;;;8.11;84.66;100050.55;127930;1088;104552;-75
2020/12/31 06:06:07;;;;;;;18.27;7.97;;;;;;;8.09;84.50;100052.23;128089;1088;104413;-73
2020/12/31 06:08:46;;;;;;;18.10;7.93;;;;;;;8.13;84.85;100051.49;128001;1089;104424;-74
2020/12/31 06:11:24;;;;;;;17.90;8.00;;;;;;;8.16;84.89;100051.61;127450;1090;104519;-74
2020/12/31 06:13:57;;;;;;;18.77;7.60;;;;;;;8.20;84.50;100047.41;127907;1088;104426;-75
2020/12/31 06:16:28;;;;;;;19.13;8.20;;;;;;;8.18;84.77;100055.20;127503;1090;104535;-74
2020/12/31 06:19:12;;;;;;;21.37;7.43;;;;;;;8.20;84.05;100050.91;128051;1088;104392;-74
2020/12/31 06:21:42;;;;;;;23.17;8.57;;;;;;;8.20;84.42;100056.13;128139;1089;104423;-74
2020/12/31 06:24:13;;;;;;;20.77;8.83;;;;;;;8.18;84.00;100052.58;128219;1089;104397;-73
2020/12/31 06:26:42;;;;;;;21.13;8.27;;;;;;;8.18;84.44;100056.89;128093;1088;104404;-75
2020/12/31 06:29:11;;;;;;;23.03;8.27;;;;;;;8.21;84.25;100051.78;127996;1089;104606;-76
2020/12/31 06:31:50;;;;;;;19.87;8.27;;;;;;;8.22;84.59;100054.45;127876;1089;104426;-75
2020/12/31 06:34:21;;;;;;;21.53;9.37;;;;;;;8.24;84.28;100062.36;128029;1088;104427;-75
2020/12/31 06:36:51;;;;;;;19.73;8.33;;;;;;;8.26;84.93;100050.27;128055;1088;104436;-75
2020/12/31 06:39:22;;;;;;;20.60;8.97;;;;;;;8.27;84.25;100058.16;127843;1088;104535;-76
2020/12/31 06:42:06;;;;;;;22.27;8.90;;;;;;;8.30;84.69;100051.26;127732;1089;104567;-75
2020/12/31 06:44:38;;;;;;;26.20;10.40;;;;;;;8.36;84.65;100062.83;127866;1088;104416;-77
2020/12/31 06:47:08;;;;;;;25.80;10.10;;;;;;;8.46;84.92;100061.47;127387;1090;104474;-76
2020/12/31 06:49:52;;;;;;;20.13;9.10;;;;;;;8.51;84.69;100059.94;127738;1091;104474;-79
2020/12/31 06:52:23;;;;;;;24.17;9.83;;;;;;;8.52;84.12;100064.31;127788;1089;104481;-77
2020/12/31 06:54:52;;;;;;;22.63;9.33;;;;;;;8.49;83.91;100061.58;127773;1089;104500;-74
2020/12/31 06:57:40;;;;;;;21.00;8.43;;;;;;;8.47;84.20;100059.77;127426;1090;104611;-75
2020/12/31 07:00:28;;;;;;;24.77;7.43;;;;;;;8.40;83.78;100071.70;127721;1088;104519;-74
2020/12/31 07:02:57;;;;;;;20.10;7.70;;;;;;;8.32;84.64;100071.41;127521;1089;104436;-76
2020/12/31 07:05:30;;;;;;;18.10;7.47;;;;;;;8.29;84.60;100068.67;127886;1088;104739;-75
2020/12/31 07:07:59;;;;;;;19.47;8.13;;;;;;;8.30;84.30;100072.17;128748;1089;102434;-74
2020/12/31 07:10:44;;;;;;;19.50;7.40;;;;;;;8.29;84.11;100066.06;127910;1088;104426;-75
2020/12/31 07:13:31;;;;;;;16.83;7.50;;;;;;;8.24;84.21;100064.97;127856;1088;104429;-75
2020/12/31 07:15:59;;;;;;;17.63;7.20;;;;;;;8.29;84.20;100063.45;127672;1090;104410;-74
2020/12/31 07:18:29;;;;;;;16.27;7.30;;;;;;;8.29;84.18;100071.29;128085;1089;104630;-72
2020/12/31 07:21:01;;;;;;;19.57;8.50;;;;;;;8.31;84.79;100063.50;127857;1090;104561;-75
2020/12/31 07:23:38;;;;;;;17.77;7.80;;;;;;;8.35;84.80;100061.06;128152;1089;104535;-74
2020/12/31 07:26:07;;;;;;;19.60;8.33;;;;;;;8.41;84.76;100068.23;128025;1089;104395;-77
2020/12/31 07:28:42;;;;;;;21.57;8.03;;;;;;;8.48;84.88;100075.52;128149;1089;104430;-74
2020/12/31 07:31:09;;;;;;;;;;;;;;;8.54;84.66;100073.12;128149;1088;103238;-76
2020/12/31 07:33:39;;;;;;;21.13;9.37;;;;;;;8.59;84.84;100066.33;127835;1088;104495;-77
2020/12/31 07:36:14;;;;;;;19.67;8.77;;;;;;;8.62;84.74;100066.44;127389;1090;104423;-77
2020/12/31 07:38:43;;;;;;;23.90;9.70;;;;;;;8.65;84.86;100076.14;128953;1090;102414;-77
2020/12/31 07:41:18;;;;;;;21.17;9.50;;;;;;;8.71;84.69;100076.36;128979;1090;102472;-76
2020/12/31 07:43:48;;;;;;;24.63;9.93;;;;;;;8.78;84.64;100067.00;129404;1089;102418;-74
2020/12/31 07:46:17;;;;;;;22.10;9.57;;;;;;;8.87;84.44;100080.41;128669;1088;103248;-74
2020/12/31 07:48:46;;;;;;;21.27;9.73;;;;;;;8.92;84.20;100075.34;127592;1091;104429;-75
2020/12/31 07:51:24;;;;;;;20.40;9.13;;;;;;;8.98;84.06;100063.36;127574;1091;104465;-76
2020/12/31 07:53:59;;;;;;;18.75;8.25;;;;;;;9.02;84.63;100071.31;127449;1091;104558;-73
2020/12/31 07:56:32;;;;;;;20.17;9.07;;;;;;;9.05;84.56;100067.06;127706;1091;104542;-73
2020/12/31 07:59:04;;;;;;;21.53;9.53;;;;;;;9.04;84.50;100073.16;127592;1092;104548;-76
2020/12/31 08:01:34;;;;;;;20.10;9.20;;;;;;;9.07;84.00;100072.36;127970;1089;104429;-74
2020/12/31 08:04:11;;;;;;;22.77;8.80;;;;;;;9.11;83.82;100063.78;127572;1091;104417;-76
2020/12/31 08:06:40;;;;;;;19.50;8.73;;;;;;;9.14;84.12;100069.12;128035;1089;104400;-74
2020/12/31 08:09:11;;;;;;;19.53;8.23;;;;;;;9.15;84.46;100063.95;127554;1091;104603;-75
2020/12/31 08:11:40;;;;;;;18.67;8.43;;;;;;;9.11;84.01;100074.26;127470;1091;105002;-76
2020/12/31 08:14:09;;;;;;;21.70;7.47;;;;;;;9.14;83.99;100069.12;127323;1091;104427;-78
2020/12/31 08:16:38;;;;;;;21.23;8.73;;;;;;;9.14;84.21;100062.16;127366;1092;104404;-74
2020/12/31 08:19:12;;;;;;;17.43;7.63;;;;;;;9.18;84.25;100071.02;127406;1091;104535;-75
2020/12/31 08:21:41;;;;;;;22.75;8.18;;;;;;;9.18;83.71;100063.17;128890;1091;103114;-76
2020/12/31 08:24:16;;;;;;;22.30;8.57;;;;;;;9.25;84.16;100062.52;127508;1091;104433;-76
2020/12/31 08:26:58;;;;;;;22.40;9.03;;;;;;;9.24;83.97;100055.53;127481;1091;104467;-75
2020/12/31 08:29:33;;;;;;;21.07;8.58;;;;;;;9.26;83.82;100051.22;127552;1091;104602;-75
2020/12/31 08:32:06;;;;;;;20.97;8.37;;;;;;;9.28;84.35;100053.89;128107;1090;104539;-74
2020/12/31 08:34:37;;;;;;;24.40;8.20;;;;;;;9.28;83.63;100046.04;127372;1091;104545;-76
2020/12/31 08:37:15;;;;;;;18.83;7.73;;;;;;;9.32;83.68;100051.43;127353;1091;104502;-76
2020/12/31 08:39:51;;;;;;;17.83;8.17;;;;;;;9.41;84.23;100043.00;127805;1089;104430;-76
2020/12/31 08:42:25;;;;;;;17.20;7.67;;;;;;;9.46;83.48;100045.77;127569;1091;104493;-75
2020/12/31 08:44:56;;;;;;;20.63;8.83;;;;;;;9.44;84.13;100043.11;127557;1091;104672;-74
2020/12/31 08:47:29;;;;;;;20.00;8.33;;;;;;;9.42;84.01;100041.27;127638;1088;104433;-74
2020/12/31 08:49:59;;;;;;;18.20;8.37;;;;;;;9.45;83.59;100036.13;128800;1089;102513;-75
2020/12/31 08:52:32;;;;;;;20.40;8.20;;;;;;;9.52;83.98;100040.70;128060;1089;104404;-77
2020/12/31 08:55:12;;;;;;;18.17;7.90;;;;;;;9.63;83.99;100041.05;127589;1089;104494;-74
2020/12/31 08:57:41;;;;;;;20.03;8.37;;;;;;;9.71;84.07;100042.21;127793;1088;104430;-76
2020/12/31 09:00:10;;;;;;;21.90;8.77;;;;;;;9.77;84.00;100054.59;128681;1089;104580;-77
2020/12/31 09:02:39;;;;;;;23.17;9.40;;;;;;;9.78;83.63;100051.14;127603;1089;104657;-77
2020/12/31 09:05:18;;;;;;;22.67;10.33;;;;;;;9.83;83.52;100052.17;127494;1089;104538;-76
2020/12/31 09:07:47;;;;;;;22.43;10.03;;;;;;;9.80;83.38;100047.75;127857;1089;104429;-76
2020/12/31 09:10:19;;;;;;;22.83;8.97;;;;;;;9.79;83.69;100043.34;127785;1089;104445;-73
2020/12/31 09:12:48;;;;;;;18.33;7.47;;;;;;;9.78;83.41;100038.92;127996;1090;104400;-75
2020/12/31 09:15:22;;;;;;;20.30;10.13;;;;;;;9.80;83.94;100047.75;128485;1088;102484;-74
2020/12/31 09:17:51;;;;;;;24.25;9.58;;;;;;;9.84;83.64;100046.98;128029;1088;104557;-74
2020/12/31 09:20:22;;;;;;;18.10;7.83;;;;;;;9.87;83.64;100033.97;128063;1089;104407;-76
2020/12/31 09:22:52;;;;;;;21.20;9.23;;;;;;;9.88;83.35;100043.63;127927;1089;104421;-79
2020/12/31 09:25:21;;;;;;;22.03;9.80;;;;;;;9.92;83.76;100033.23;127966;1088;104477;-76
2020/12/31 09:27:51;;;;;;;21.90;10.27;;;;;;;9.98;83.43;100036.05;127947;1088;104436;-77
2020/12/31 09:30:23;;;;;;;23.60;10.00;;;;;;;9.97;83.57;100034.25;127563;1090;104427;-73
2020/12/31 09:32:52;;;;;;;20.30;9.93;;;;;;;9.96;83.43;100024.64;127960;1089;104427;-76
2020/12/31 09:35:24;;;;;;;23.90;10.53;;;;;;;9.93;83.74;100022.80;128011;1088;104528;-79
2020/12/31 09:37:57;;;;;;;22.07;9.30;;;;;;;9.96;83.48;100022.02;128600;1089;104430;-76
2020/12/31 09:40:29;;;;;;;19.47;9.20;;;;;;;9.95;83.55;100015.86;127961;1088;104484;-74
2020/12/31 09:42:59;;;;;;;23.20;10.27;;;;;;;9.95;83.40;100018.48;127978;1088;104430;-74
2020/12/31 09:45:29;;;;;;;22.63;10.63;;;;;;;9.96;83.12;100015.03;127895;1089;104423;-73
2020/12/31 09:48:00;;;;;;;22.13;10.07;;;;;;;9.96;83.38;100009.79;127483;1090;104597;-74
2020/12/31 09:50:29;;;;;;;21.13;9.33;;;;;;;9.94;82.76;99997.47;127589;1090;104592;-75
2020/12/31 09:53:01;;;;;;;18.53;8.20;;;;;;;9.96;83.10;99994.06;127955;1088;104538;-74
2020/12/31 09:55:30;;;;;;;22.17;9.13;;;;;;;9.93;83.15;99999.21;128168;1088;104432;-75
2020/12/31 09:57:59;;;;;;;19.23;8.50;;;;;;;9.93;82.92;100003.58;128026;1089;104427;-74
2020/12/31 10:00:28;;;;;;;20.30;8.07;;;;;;;9.96;82.88;99994.06;128143;1088;104547;-74
2020/12/31 10:02:57;;;;;;;18.53;8.33;;;;;;;9.99;83.16;99998.52;127849;1090;104561;-77
2020/12/31 10:05:26;;;;;;;23.57;10.30;;;;;;;10.00;83.15;99992.41;128098;1088;104620;-75
2020/12/31 10:07:55;;;;;;;23.13;10.10;;;;;;;10.00;83.69;99995.03;128066;1090;104436;-75
2020/12/31 10:10:23;;;;;;;23.83;10.03;;;;;;;9.98;83.32;99991.48;128025;1088;104442;-73
2020/12/31 10:12:53;;;;;;;18.57;8.83;;;;;;;9.97;83.69;99987.98;128009;1089;104423;-73
2020/12/31 10:15:22;;;;;;;22.03;8.67;;;;;;;9.99;83.38;99980.17;127984;1088;104517;-75
2020/12/31 10:17:54;;;;;;;19.97;8.67;;;;;;;10.02;83.27;99972.37;127851;1088;104900;-75
2020/12/31 10:20:33;;;;;;;21.83;8.53;;;;;;;10.05;83.56;99968.13;128008;1089;104427;-74
2020/12/31 10:23:02;;;;;;;18.63;9.07;;;;;;;10.02;83.36;99972.37;127965;1088;104742;-76
2020/12/31 10:25:32;;;;;;;20.53;8.63;;;;;;;10.06;83.29;99967.26;127909;1088;104420;-75
2020/12/31 10:28:04;;;;;;;23.67;8.73;;;;;;;10.13;83.32;99972.68;127907;1089;104564;-76
2020/12/31 10:30:34;;;;;;;21.65;9.60;;;;;;;10.17;83.37;99964.95;127781;1088;104423;-75
2020/12/31 10:33:06;;;;;;;19.17;9.30;;;;;;;10.30;83.54;99967.92;127739;1089;104478;-76
2020/12/31 10:35:35;;;;;;;18.80;9.37;;;;;;;10.31;83.03;99952.23;127357;1090;104638;-76
2020/12/31 10:38:04;;;;;;;22.47;9.13;;;;;;;10.34;83.49;99954.98;127918;1088;104493;-77
2020/12/31 10:40:33;;;;;;;19.57;9.07;;;;;;;10.40;83.23;99954.27;127905;1089;104404;-76
2020/12/31 10:43:04;;;;;;;18.07;7.77;;;;;;;10.43;83.13;99934.25;127654;1090;104542;-75
2020/12/31 10:45:33;;;;;;;19.07;8.10;;;;;;;10.43;83.07;99934.25;128143;1088;104756;-78
2020/12/31 10:48:02;;;;;;;20.80;8.63;;;;;;;10.47;82.84;99924.75;127318;1089;104478;-79
2020/12/31 10:50:31;;;;;;;21.73;8.20;;;;;;;10.49;82.99;99923.05;127339;1090;104566;-77
2020/12/31 10:53:00;;;;;;;18.23;9.30;;;;;;;10.55;83.33;99922.30;127277;1090;104423;-82
2020/12/31 10:55:29;;;;;;;22.63;10.47;;;;;;;10.56;82.93;99913.59;127668;1088;104445;-80
2020/12/31 10:57:58;;;;;;;23.80;9.93;;;;;;;10.61;83.08;99912.88;127671;1088;104465;-77
2020/12/31 11:00:27;;;;;;;23.87;10.60;;;;;;;10.65;83.07;99915.58;127691;1089;104407;-79
2020/12/31 11:02:56;;;;;;;20.80;10.10;;;;;;;10.62;82.61;99916.38;127704;1089;104547;-79
2020/12/31 11:05:25;;;;;;;20.73;8.97;;;;;;;10.64;83.14;99913.80;127658;1089;104484;-78
2020/12/31 11:07:55;;;;;;;19.97;9.57;;;;;;;10.65;82.75;99912.95;127711;1088;104587;-77
2020/12/31 11:10:24;;;;;;;21.67;10.10;;;;;;;10.65;82.91;99903.34;127586;1088;104599;-75
2020/12/31 11:12:53;;;;;;;21.50;9.20;;;;;;;10.69;82.70;99905.20;127591;1089;104490;-76
2020/12/31 11:15:22;;;;;;;18.07;7.40;;;;;;;10.71;82.51;99906.12;127923;1088;104593;-74
2020/12/31 11:17:51;;;;;;;15.10;7.27;;;;;;;10.70;82.62;99901.71;127760;1089;104436;-74
2020/12/31 11:20:20;;;;;;;18.53;7.87;;;;;;;10.66;82.55;99897.25;127904;1088;104529;-79
2020/12/31 11:22:50;;;;;;;18.23;8.33;;;;;;;10.68;82.83;99902.54;127850;1088;104423;-74